Wittman Regional Airport Oshkosh US
ICAO: KOSH
IATA: OSH
Category: Medium
Scheduled Services: No

Elevation: 808 ft
TransAlt. 18000 ft.

Airport Communications:
ATIS:125.9
CHICAGO CNTR:127
CTAF:118.5
GND:121.9
GREEN BAY RDO:122.25
OSHKOSH TWR:118.5
UNICOM:122.95

KOSH Zoom In..

Runways:

(A) RW 04 length 3697 ft width 75 ft
---- / hdg 48

(B) RW 09 length 6179 ft width 150 ft
---- / hdg 94

(C) RW 13 length 3061 ft width 75 ft
---- / hdg 132

(D) RW 18 length 8002 ft width 150 ft
---- / hdg 184

(E) RW 22 length 3697 ft width 75 ft
---- / hdg 228

(F) RW 27 length 6179 ft width 150 ft
---- / hdg 274

(G) RW 31 length 3061 ft width 75 ft
---- / hdg 312

(H) RW 36 length 8002 ft width 150 ft
ILS 110.50 / hdg 4

Location; KOSH
Day. 19 / Time. 20.53 Zulu
* Altimeter: 30.37
* Temperature: 08° c. 46.4°f.
* Wind from: 200° Speed 06 kn.
Dewpoint: -04° c.
Visibility: 10 Statute Miles.
Clouds: Clear (automated report).

KOSH 192053Z 20006KT 10SM CLR 08/M04 A3037 RMK AO2 SLP295 T00781039 53004


Wind From 200°
Speed 06 kn.

  YouTube Music Video
 
jpsmedia.com for Web Design  worldairports.se 2018   terms of use